Time;durP1;ratioP1;P1;durP2;ratioP2;P2;SDS_P1;SDS_P2;PMS_P1;PMS_P2;Temp;Humidity;BMP_temperature;BMP_pressure;BME280_temperature;BME280_humidity;BME280_pressure;Samples;Min_cycle;Max_cycle;Signal;HPM_P1;HPM_P2
2021/05/06 00:11:48;;;;;;;7.80;4.93;;;;;;;;;;4990399;28;20039;-68
2021/05/06 00:30:57;;;;;;;6.70;5.30;;;;;;;;;;4984351;28;20045;-68
2021/05/06 00:33:20;;;;;;;9.55;6.38;;;;;;;;;;4986522;28;20041;-68
2021/05/06 00:35:47;;;;;;;9.48;5.40;;;;;;;;;;4990782;28;20033;-68
2021/05/06 00:38:20;;;;;;;10.32;5.50;;;;;;;;;;4994543;28;20110;-69
2021/05/06 01:05:21;;;;;;;11.40;6.93;;;;;;;;;;4992644;28;20033;-68
2021/05/06 01:12:44;;;;;;;11.48;7.68;;;;;;;;;;5002465;28;20498;-68
2021/05/06 01:15:10;;;;;;;11.35;8.05;;;;;;;;;;4987046;28;20026;-68
2021/05/06 01:17:37;;;;;;;12.02;7.78;;;;;;;;;;4993293;28;20023;-68
2021/05/06 01:20:04;;;;;;;12.68;8.70;;;;;;;;;;4998112;28;20079;-68
2021/05/06 01:22:30;;;;;;;11.10;8.48;;;;;;;;;;4984592;28;20114;-68
2021/05/06 01:24:58;;;;;;;12.82;9.27;;;;;;;;;;5002842;28;20026;-69
2021/05/06 01:28:27;;;;;;;10.20;8.32;;;;;;;;;;4996956;28;20114;-69
2021/05/06 01:32:58;;;;;;;11.95;9.93;;;;;;;;;;5004219;28;20030;-69
2021/05/06 01:35:32;;;;;;;11.35;9.77;;;;;;;;;;4993462;28;20457;-68
2021/05/06 01:38:20;;;;;;;13.45;9.65;;;;;;;;;;4986706;28;20476;-68
2021/05/06 01:59:38;;;;;;;16.98;11.00;;;;;;;;;;4992609;28;20072;-69
2021/05/06 02:02:04;;;;;;;16.63;11.63;;;;;;;;;;4993185;28;20018;-68
2021/05/06 02:04:30;;;;;;;18.40;11.73;;;;;;;;;;4993034;28;20033;-69
2021/05/06 02:06:56;;;;;;;18.95;12.75;;;;;;;;;;5000833;28;20086;-68
2021/05/06 02:09:22;;;;;;;16.52;11.65;;;;;;;;;;5003979;28;20061;-68
2021/05/06 02:11:48;;;;;;;18.85;13.43;;;;;;;;;;4986645;28;20027;-69
2021/05/06 02:14:14;;;;;;;20.13;13.20;;;;;;;;;;4992257;28;20080;-68
2021/05/06 02:16:40;;;;;;;19.10;13.15;;;;;;;;;;4991858;28;20033;-68
2021/05/06 02:19:06;;;;;;;21.48;13.70;;;;;;;;;;4992929;28;20038;-69
2021/05/06 02:21:33;;;;;;;18.67;13.23;;;;;;;;;;4990699;28;20142;-69
2021/05/06 02:23:59;;;;;;;21.20;14.98;;;;;;;;;;4992191;28;20476;-68
2021/05/06 02:26:25;;;;;;;20.38;15.18;;;;;;;;;;5002919;28;20026;-68
2021/05/06 02:28:51;;;;;;;20.15;15.20;;;;;;;;;;4996296;28;20022;-69
2021/05/06 02:31:17;;;;;;;22.90;15.32;;;;;;;;;;4999372;28;20472;-68
2021/05/06 02:33:44;;;;;;;21.88;15.55;;;;;;;;;;4996396;28;20030;-68
2021/05/06 02:36:10;;;;;;;23.63;15.98;;;;;;;;;;4993590;28;20042;-68
2021/05/06 02:38:36;;;;;;;26.08;17.25;;;;;;;;;;4993539;28;20029;-68
2021/05/06 02:41:02;;;;;;;25.45;18.60;;;;;;;;;;4992252;28;20033;-68
2021/05/06 02:43:28;;;;;;;25.25;17.20;;;;;;;;;;4999400;28;20442;-68
2021/05/06 02:45:54;;;;;;;27.52;18.58;;;;;;;;;;4993961;28;20101;-68
2021/05/06 02:48:20;;;;;;;27.45;17.95;;;;;;;;;;4999785;28;20014;-69
2021/05/06 02:50:52;;;;;;;30.25;19.95;;;;;;;;;;4996443;28;20399;-69
2021/05/06 02:53:20;;;;;;;30.20;20.63;;;;;;;;;;4991050;28;20034;-68
2021/05/06 03:03:49;;;;;;;32.58;22.02;;;;;;;;;;4988610;28;20812;-69
2021/05/06 03:06:25;;;;;;;31.58;21.15;;;;;;;;;;5011020;28;20026;-69
2021/05/06 03:08:56;;;;;;;35.75;22.27;;;;;;;;;;5004563;28;20022;-69
2021/05/06 03:11:42;;;;;;;33.08;20.70;;;;;;;;;;4993271;28;20121;-68
2021/05/06 03:14:25;;;;;;;34.95;22.25;;;;;;;;;;4988363;28;20030;-69
2021/05/06 03:25:08;;;;;;;32.88;21.83;;;;;;;;;;4989532;28;20081;-67
2021/05/06 03:27:38;;;;;;;36.60;23.98;;;;;;;;;;4994837;28;20025;-67
2021/05/06 03:32:59;;;;;;;37.08;23.88;;;;;;;;;;4988135;28;20463;-68
2021/05/06 03:43:53;;;;;;;40.00;24.48;;;;;;;;;;4979617;28;20407;-67
2021/05/06 04:17:02;;;;;;;46.17;29.50;;;;;;;;;;4986448;28;20043;-67
2021/05/06 04:27:23;;;;;;;33.80;22.52;;;;;;;;;;4993912;28;20092;-67
2021/05/06 04:30:10;;;;;;;36.35;23.70;;;;;;;;;;4989582;28;20029;-67
2021/05/06 04:35:40;;;;;;;36.03;24.13;;;;;;;;;;4984488;28;20072;-66
2021/05/06 04:38:07;;;;;;;40.30;24.17;;;;;;;;;;4990889;28;20478;-67
2021/05/06 04:56:51;;;;;;;37.05;24.05;;;;;;;;;;4990670;28;20034;-67
2021/05/06 05:03:14;;;;;;;34.00;24.53;;;;;;;;;;4990648;28;20403;-67
2021/05/06 05:04:52;;;;;;;34.85;20.85;;;;;;;;;;5010148;28;20068;-67
2021/05/06 05:07:37;;;;;;;32.10;20.70;;;;;;;;;;4994077;28;20027;-67
2021/05/06 05:12:54;;;;;;;27.92;18.35;;;;;;;;;;4989437;28;20045;-67
2021/05/06 05:23:52;;;;;;;15.75;11.57;;;;;;;;;;4985230;28;20157;-67
2021/05/06 05:26:19;;;;;;;15.70;11.68;;;;;;;;;;4992477;28;21386;-68
2021/05/06 05:28:44;;;;;;;14.50;11.77;;;;;;;;;;4982546;28;20035;-67
2021/05/06 05:31:10;;;;;;;14.38;10.93;;;;;;;;;;4986929;28;20038;-67
2021/05/06 05:33:45;;;;;;;17.33;12.90;;;;;;;;;;4992577;28;20022;-67
2021/05/06 05:36:18;;;;;;;12.98;10.88;;;;;;;;;;4991077;28;20018;-67
2021/05/06 05:44:36;;;;;;;12.82;11.02;;;;;;;;;;4990042;28;20038;-67
2021/05/06 05:55:13;;;;;;;10.90;9.40;;;;;;;;;;4983669;28;20125;-67
2021/05/06 05:57:39;;;;;;;12.40;9.57;;;;;;;;;;4982004;28;20021;-67
2021/05/06 06:00:05;;;;;;;13.27;10.13;;;;;;;;;;4987027;28;20431;-67
2021/05/06 06:02:34;;;;;;;10.45;9.32;;;;;;;;;;4988790;28;20031;-67
2021/05/06 06:04:59;;;;;;;9.73;8.30;;;;;;;;;;4988957;28;20019;-67
2021/05/06 06:07:26;;;;;;;6.60;5.43;;;;;;;;;;4982623;28;20100;-67
2021/05/06 06:09:52;;;;;;;7.45;5.28;;;;;;;;;;4988169;28;20397;-67
2021/05/06 06:12:17;;;;;;;7.78;5.68;;;;;;;;;;4986771;28;20054;-67
2021/05/06 06:14:51;;;;;;;8.00;5.22;;;;;;;;;;4990044;28;20026;-67
2021/05/06 06:17:17;;;;;;;5.43;4.85;;;;;;;;;;4987682;28;20026;-68
2021/05/06 06:19:49;;;;;;;7.53;4.93;;;;;;;;;;4993167;28;20038;-68
2021/05/06 06:22:18;;;;;;;7.70;4.57;;;;;;;;;;4985645;28;20033;-67
2021/05/06 06:24:43;;;;;;;5.75;4.07;;;;;;;;;;4987902;28;20022;-68
2021/05/06 06:27:10;;;;;;;5.10;3.42;;;;;;;;;;5005318;28;20101;-68
2021/05/06 06:29:36;;;;;;;6.60;3.85;;;;;;;;;;4991864;28;20041;-67
2021/05/06 06:32:05;;;;;;;6.13;3.80;;;;;;;;;;5000904;28;20109;-68
2021/05/06 06:34:31;;;;;;;6.57;3.80;;;;;;;;;;4990928;28;20392;-68
2021/05/06 06:36:57;;;;;;;5.05;4.07;;;;;;;;;;4992488;28;20026;-67
2021/05/06 06:39:26;;;;;;;5.68;4.10;;;;;;;;;;4987899;28;20058;-68
2021/05/06 06:41:52;;;;;;;8.77;4.60;;;;;;;;;;4986327;28;20063;-68
2021/05/06 06:44:20;;;;;;;5.45;3.83;;;;;;;;;;4991261;28;20026;-68
2021/05/06 06:47:00;;;;;;;7.30;3.80;;;;;;;;;;4992246;28;20022;-68
2021/05/06 06:49:26;;;;;;;8.13;4.32;;;;;;;;;;4992393;28;20022;-67
2021/05/06 06:51:52;;;;;;;4.65;3.67;;;;;;;;;;4992104;28;20149;-67
2021/05/06 06:54:18;;;;;;;5.10;3.08;;;;;;;;;;4989562;28;20105;-68
2021/05/06 06:56:44;;;;;;;7.80;4.25;;;;;;;;;;4992071;28;20504;-68
2021/05/06 06:59:10;;;;;;;7.60;3.22;;;;;;;;;;4992574;28;20388;-68
2021/05/06 07:01:36;;;;;;;4.97;3.75;;;;;;;;;;4983348;28;20534;-68
2021/05/06 07:04:02;;;;;;;5.78;4.18;;;;;;;;;;4987861;28;20120;-69
2021/05/06 07:06:28;;;;;;;7.80;3.90;;;;;;;;;;4991922;28;20492;-68
2021/05/06 07:08:54;;;;;;;4.47;3.72;;;;;;;;;;4988152;28;20106;-68
2021/05/06 07:11:20;;;;;;;4.60;3.60;;;;;;;;;;4987332;28;20022;-68
2021/05/06 07:13:46;;;;;;;5.32;4.20;;;;;;;;;;4987073;28;20026;-68
2021/05/06 07:16:13;;;;;;;6.18;4.53;;;;;;;;;;4991180;28;20034;-68
2021/05/06 07:18:39;;;;;;;5.95;4.40;;;;;;;;;;4991255;28;20491;-68
2021/05/06 07:21:05;;;;;;;5.57;4.53;;;;;;;;;;4985848;28;20023;-68
2021/05/06 07:23:32;;;;;;;9.23;5.53;;;;;;;;;;4992411;28;20727;-68
2021/05/06 07:25:59;;;;;;;9.43;5.20;;;;;;;;;;4991694;28;20049;-68
2021/05/06 07:28:32;;;;;;;8.00;4.72;;;;;;;;;;4993987;28;20069;-67
2021/05/06 07:31:00;;;;;;;6.97;4.93;;;;;;;;;;4991676;28;20014;-68
2021/05/06 07:33:26;;;;;;;9.70;4.78;;;;;;;;;;4992062;28;20078;-68
2021/05/06 07:35:52;;;;;;;7.40;4.30;;;;;;;;;;4991233;28;20420;-68
2021/05/06 07:38:19;;;;;;;6.95;4.88;;;;;;;;;;4988670;28;21314;-68
2021/05/06 07:40:45;;;;;;;7.53;5.03;;;;;;;;;;4988252;28;20035;-68
2021/05/06 07:43:11;;;;;;;6.47;4.28;;;;;;;;;;4990937;28;20081;-69
2021/05/06 07:45:37;;;;;;;6.53;4.10;;;;;;;;;;4997314;28;20025;-70
2021/05/06 07:48:04;;;;;;;5.75;3.35;;;;;;;;;;4990814;28;20080;-70
2021/05/06 07:50:30;;;;;;;5.07;3.30;;;;;;;;;;4988126;28;20037;-69
2021/05/06 07:53:06;;;;;;;6.90;3.70;;;;;;;;;;4989266;28;20037;-68
2021/05/06 07:55:32;;;;;;;7.88;3.83;;;;;;;;;;4991575;28;20030;-67
2021/05/06 07:57:59;;;;;;;6.80;4.28;;;;;;;;;;4990541;28;20042;-67
2021/05/06 08:00:26;;;;;;;7.57;4.43;;;;;;;;;;4990589;28;20022;-67
2021/05/06 08:02:52;;;;;;;6.32;4.22;;;;;;;;;;4990858;28;20026;-69
2021/05/06 08:05:18;;;;;;;6.78;4.78;;;;;;;;;;4988686;28;20034;-69
2021/05/06 08:07:44;;;;;;;5.70;4.03;;;;;;;;;;4989510;28;20038;-69
2021/05/06 08:10:10;;;;;;;6.38;4.00;;;;;;;;;;5007984;28;20029;-69
2021/05/06 08:12:37;;;;;;;11.10;4.30;;;;;;;;;;5004392;28;20032;-69
2021/05/06 08:15:07;;;;;;;6.15;4.22;;;;;;;;;;5008030;28;20033;-69
2021/05/06 08:17:33;;;;;;;6.13;3.40;;;;;;;;;;5008628;28;20120;-69
2021/05/06 08:20:00;;;;;;;6.40;3.83;;;;;;;;;;5000737;28;20030;-69
2021/05/06 08:22:26;;;;;;;5.20;4.00;;;;;;;;;;5001197;28;20010;-70
2021/05/06 08:24:52;;;;;;;5.93;3.85;;;;;;;;;;5004432;28;20032;-69
2021/05/06 08:27:18;;;;;;;5.20;3.15;;;;;;;;;;5004153;28;20129;-69
2021/05/06 08:29:45;;;;;;;5.85;3.03;;;;;;;;;;5008727;28;20310;-69
2021/05/06 08:32:11;;;;;;;3.83;2.05;;;;;;;;;;5005248;28;20053;-68
2021/05/06 08:34:37;;;;;;;4.53;2.60;;;;;;;;;;5004859;28;20026;-68
2021/05/06 08:37:03;;;;;;;6.90;2.72;;;;;;;;;;5014212;28;20033;-68
2021/05/06 08:39:29;;;;;;;5.55;2.50;;;;;;;;;;4996759;28;20034;-69
2021/05/06 08:41:55;;;;;;;6.30;2.20;;;;;;;;;;5003852;28;20121;-67
2021/05/06 08:44:26;;;;;;;3.60;2.33;;;;;;;;;;5009068;28;20056;-67
2021/05/06 08:47:12;;;;;;;5.50;2.58;;;;;;;;;;5014072;28;20062;-67
2021/05/06 08:49:38;;;;;;;4.65;2.38;;;;;;;;;;5003868;28;20132;-69
2021/05/06 08:52:06;;;;;;;6.93;2.30;;;;;;;;;;5006799;28;20026;-69
2021/05/06 08:54:32;;;;;;;6.60;2.55;;;;;;;;;;4995196;28;20018;-69
2021/05/06 08:56:59;;;;;;;5.47;2.60;;;;;;;;;;5002049;28;20030;-68
2021/05/06 08:59:25;;;;;;;6.43;2.40;;;;;;;;;;4996606;28;20045;-69
2021/05/06 09:01:52;;;;;;;6.65;2.50;;;;;;;;;;4996696;28;20023;-68
2021/05/06 09:04:18;;;;;;;3.85;2.20;;;;;;;;;;5003216;28;20093;-65
2021/05/06 09:06:57;;;;;;;4.57;2.38;;;;;;;;;;5003345;28;20431;-66
2021/05/06 09:09:24;;;;;;;18.70;2.63;;;;;;;;;;5010220;28;20066;-66
2021/05/06 09:11:57;;;;;;;3.15;2.42;;;;;;;;;;5005255;28;20456;-66
2021/05/06 09:14:41;;;;;;;4.05;2.47;;;;;;;;;;5007645;28;20092;-65
2021/05/06 09:17:23;;;;;;;10.38;3.03;;;;;;;;;;5013515;28;20029;-66
2021/05/06 09:20:04;;;;;;;4.43;2.60;;;;;;;;;;4996899;28;20029;-65
2021/05/06 09:22:38;;;;;;;4.32;1.83;;;;;;;;;;5015417;28;20496;-66
2021/05/06 09:25:23;;;;;;;4.18;2.58;;;;;;;;;;5015981;28;20021;-66
2021/05/06 09:28:03;;;;;;;5.47;2.83;;;;;;;;;;5001474;28;20083;-68
2021/05/06 09:30:49;;;;;;;5.75;2.72;;;;;;;;;;5001493;28;20018;-68
2021/05/06 09:33:16;;;;;;;4.32;2.63;;;;;;;;;;5014379;28;20037;-68
2021/05/06 09:35:46;;;;;;;4.22;2.60;;;;;;;;;;5012695;28;20424;-69
2021/05/06 09:38:24;;;;;;;3.40;2.70;;;;;;;;;;4993807;28;20034;-68
2021/05/06 09:40:50;;;;;;;5.57;3.10;;;;;;;;;;4991416;28;20631;-68
2021/05/06 09:43:23;;;;;;;4.75;2.83;;;;;;;;;;4996981;28;20074;-68
2021/05/06 09:45:49;;;;;;;4.20;2.55;;;;;;;;;;4999325;28;20057;-68
2021/05/06 09:48:16;;;;;;;5.22;2.67;;;;;;;;;;5000060;28;20469;-68
2021/05/06 09:50:43;;;;;;;7.55;3.40;;;;;;;;;;4995355;28;20158;-68
2021/05/06 09:53:12;;;;;;;7.15;4.97;;;;;;;;;;4997764;28;20030;-68
2021/05/06 09:55:39;;;;;;;9.52;6.25;;;;;;;;;;4996130;28;20072;-68
2021/05/06 09:58:32;;;;;;;6.07;4.57;;;;;;;;;;4997407;28;20032;-68
2021/05/06 10:00:58;;;;;;;4.85;2.80;;;;;;;;;;4996027;28;20034;-68
2021/05/06 10:03:31;;;;;;;3.10;2.42;;;;;;;;;;5000647;28;20095;-68
2021/05/06 10:05:57;;;;;;;5.30;3.05;;;;;;;;;;4999881;28;20052;-68
2021/05/06 10:08:39;;;;;;;6.13;3.10;;;;;;;;;;4998137;28;20025;-68
2021/05/06 10:11:22;;;;;;;7.38;2.70;;;;;;;;;;4997831;28;20508;-68
2021/05/06 10:13:50;;;;;;;4.50;2.75;;;;;;;;;;4995955;28;20031;-67
2021/05/06 10:16:16;;;;;;;6.90;3.53;;;;;;;;;;5002232;28;20076;-68
2021/05/06 10:18:46;;;;;;;7.28;3.13;;;;;;;;;;4995596;28;20042;-68
2021/05/06 10:21:16;;;;;;;7.38;3.63;;;;;;;;;;5005575;28;20072;-68
2021/05/06 10:23:46;;;;;;;5.30;3.40;;;;;;;;;;4995493;28;20702;-67
2021/05/06 10:26:13;;;;;;;6.72;3.40;;;;;;;;;;4998303;28;20112;-68
2021/05/06 10:28:39;;;;;;;6.20;3.88;;;;;;;;;;4999857;28;20025;-68
2021/05/06 10:31:07;;;;;;;4.55;3.22;;;;;;;;;;5001877;28;20037;-68
2021/05/06 10:33:36;;;;;;;5.18;2.92;;;;;;;;;;5001699;28;20018;-67
2021/05/06 10:36:04;;;;;;;3.13;2.40;;;;;;;;;;5001678;28;20100;-68
2021/05/06 10:38:31;;;;;;;3.10;2.28;;;;;;;;;;5008501;28;20483;-70
2021/05/06 10:40:58;;;;;;;4.68;3.83;;;;;;;;;;5002352;28;20030;-68
2021/05/06 10:43:27;;;;;;;4.97;3.30;;;;;;;;;;5009821;28;20053;-69
2021/05/06 10:45:55;;;;;;;5.63;3.13;;;;;;;;;;5008784;28;20112;-68
2021/05/06 10:48:22;;;;;;;3.10;2.55;;;;;;;;;;5007476;28;20049;-68
2021/05/06 10:50:50;;;;;;;2.45;2.17;;;;;;;;;;4991228;28;20022;-68
2021/05/06 10:53:26;;;;;;;3.05;2.38;;;;;;;;;;5001315;28;20036;-68
2021/05/06 10:55:54;;;;;;;3.78;2.88;;;;;;;;;;5007399;28;20053;-68
2021/05/06 10:58:26;;;;;;;4.68;3.17;;;;;;;;;;4996425;28;20025;-68
2021/05/06 11:01:05;;;;;;;3.20;2.30;;;;;;;;;;5000003;28;20038;-69
2021/05/06 11:03:34;;;;;;;4.60;2.88;;;;;;;;;;4996173;28;20025;-68
2021/05/06 11:06:00;;;;;;;4.60;2.83;;;;;;;;;;5004279;28;20026;-68
2021/05/06 11:08:36;;;;;;;4.72;2.53;;;;;;;;;;5001134;28;20511;-68
2021/05/06 11:11:03;;;;;;;3.55;2.58;;;;;;;;;;5004696;28;20014;-69
2021/05/06 11:13:49;;;;;;;5.40;2.70;;;;;;;;;;5005709;28;20024;-68
2021/05/06 11:16:16;;;;;;;4.55;2.50;;;;;;;;;;5003756;28;20030;-68
2021/05/06 11:18:43;;;;;;;5.07;3.05;;;;;;;;;;5005301;28;20491;-68
2021/05/06 11:21:09;;;;;;;5.68;2.75;;;;;;;;;;5005875;28;20022;-68
2021/05/06 11:23:36;;;;;;;5.57;3.28;;;;;;;;;;5007055;28;20578;-68
2021/05/06 11:26:03;;;;;;;5.18;3.47;;;;;;;;;;5022011;28;20022;-68
2021/05/06 11:28:29;;;;;;;7.25;3.17;;;;;;;;;;5008046;28;20022;-68
2021/05/06 11:30:56;;;;;;;5.65;3.50;;;;;;;;;;5019236;28;20092;-68
2021/05/06 11:33:22;;;;;;;4.43;3.05;;;;;;;;;;5013136;28;20029;-68
2021/05/06 11:36:07;;;;;;;6.53;3.75;;;;;;;;;;5009785;28;20018;-68
2021/05/06 11:38:40;;;;;;;4.85;3.00;;;;;;;;;;5008345;28;20037;-68
2021/05/06 11:41:07;;;;;;;7.25;4.32;;;;;;;;;;5019508;28;20365;-68
2021/05/06 11:43:33;;;;;;;10.32;4.10;;;;;;;;;;5007310;28;20167;-68
2021/05/06 11:46:05;;;;;;;7.88;4.18;;;;;;;;;;5008902;28;20420;-68
2021/05/06 11:48:34;;;;;;;9.13;3.85;;;;;;;;;;5012505;28;20071;-69
2021/05/06 11:51:00;;;;;;;7.40;4.73;;;;;;;;;;5010826;28;20029;-70
2021/05/06 11:53:26;;;;;;;10.65;5.70;;;;;;;;;;5021463;28;20026;-70
2021/05/06 11:55:52;;;;;;;10.52;6.28;;;;;;;;;;5006117;28;20033;-70
2021/05/06 11:58:25;;;;;;;8.43;5.65;;;;;;;;;;5005751;28;20037;-70
2021/05/06 12:00:54;;;;;;;12.73;8.98;;;;;;;;;;5020011;28;20172;-70
2021/05/06 12:03:21;;;;;;;8.83;6.57;;;;;;;;;;5009502;28;20026;-72
2021/05/06 12:05:48;;;;;;;8.02;5.45;;;;;;;;;;5015048;28;20101;-70
2021/05/06 12:08:14;;;;;;;7.75;4.72;;;;;;;;;;5006648;28;20022;-70
2021/05/06 12:10:41;;;;;;;7.50;4.80;;;;;;;;;;5006103;28;20169;-70
2021/05/06 12:13:08;;;;;;;8.90;5.53;;;;;;;;;;5008212;28;20034;-70
2021/05/06 12:15:34;;;;;;;7.30;4.85;;;;;;;;;;5013430;28;20380;-70
2021/05/06 12:18:15;;;;;;;10.43;5.68;;;;;;;;;;5004865;28;20030;-70
2021/05/06 12:20:49;;;;;;;8.60;5.43;;;;;;;;;;5006136;28;20103;-71
2021/05/06 12:23:15;;;;;;;7.25;4.90;;;;;;;;;;5003488;28;20030;-69
2021/05/06 12:25:41;;;;;;;8.50;5.32;;;;;;;;;;5008935;28;20383;-70
2021/05/06 12:28:07;;;;;;;8.07;4.85;;;;;;;;;;5020036;28;20027;-70
2021/05/06 12:30:33;;;;;;;11.20;5.82;;;;;;;;;;5004462;28;20585;-71
2021/05/06 12:32:59;;;;;;;12.48;5.75;;;;;;;;;;5006434;28;20023;-71
2021/05/06 12:35:25;;;;;;;6.53;4.97;;;;;;;;;;5007365;28;20563;-71
2021/05/06 12:37:55;;;;;;;5.68;4.47;;;;;;;;;;5001425;28;20022;-71
2021/05/06 12:40:21;;;;;;;5.87;4.43;;;;;;;;;;4996996;28;20595;-71
2021/05/06 12:42:48;;;;;;;6.53;4.10;;;;;;;;;;4998704;28;20270;-71
2021/05/06 12:45:15;;;;;;;8.23;5.30;;;;;;;;;;4998163;28;20018;-70
2021/05/06 12:47:44;;;;;;;6.47;4.55;;;;;;;;;;4998797;28;20022;-70
2021/05/06 12:50:14;;;;;;;10.25;4.95;;;;;;;;;;4994456;28;20089;-71
2021/05/06 12:52:40;;;;;;;6.93;4.82;;;;;;;;;;4991762;28;20050;-70
2021/05/06 12:55:15;;;;;;;8.38;5.10;;;;;;;;;;4991489;28;20061;-70
2021/05/06 12:57:42;;;;;;;7.13;4.68;;;;;;;;;;4997901;28;20026;-70
2021/05/06 13:00:21;;;;;;;6.68;4.53;;;;;;;;;;4999501;28;20019;-71
2021/05/06 13:02:47;;;;;;;8.30;4.38;;;;;;;;;;5003233;28;20023;-70
2021/05/06 13:05:27;;;;;;;6.60;4.72;;;;;;;;;;4992418;28;20030;-70
2021/05/06 13:07:54;;;;;;;;;;;;;;;;;;4991873;28;20098;-70
2021/05/06 13:10:37;;;;;;;16.85;6.93;;;;;;;;;;4990549;28;19914;-69
2021/05/06 13:13:05;;;;;;;11.27;5.68;;;;;;;;;;4990312;28;20031;-70
2021/05/06 13:15:44;;;;;;;12.00;7.30;;;;;;;;;;4995600;28;20062;-70
2021/05/06 13:18:10;;;;;;;11.75;6.13;;;;;;;;;;4990339;28;20463;-70
2021/05/06 13:20:37;;;;;;;9.13;6.43;;;;;;;;;;4995715;28;20102;-70
2021/05/06 13:23:10;;;;;;;8.50;5.78;;;;;;;;;;5002732;28;20040;-70
2021/05/06 13:25:39;;;;;;;13.00;6.03;;;;;;;;;;4994117;28;20109;-70
2021/05/06 13:28:06;;;;;;;9.93;5.65;;;;;;;;;;4998422;28;20045;-70
2021/05/06 13:30:32;;;;;;;8.38;5.43;;;;;;;;;;4998265;28;20045;-68
2021/05/06 13:33:13;;;;;;;7.05;5.32;;;;;;;;;;4998166;28;20658;-70
2021/05/06 13:35:40;;;;;;;8.15;5.40;;;;;;;;;;4993854;28;20022;-70
2021/05/06 13:38:06;;;;;;;6.38;4.90;;;;;;;;;;5000586;28;20621;-70
2021/05/06 13:40:32;;;;;;;9.32;5.22;;;;;;;;;;5006019;28;20033;-70
2021/05/06 13:42:58;;;;;;;8.35;5.45;;;;;;;;;;5010169;28;20488;-70
2021/05/06 13:45:25;;;;;;;8.68;5.55;;;;;;;;;;5012305;28;20018;-70
2021/05/06 13:47:51;;;;;;;7.30;5.20;;;;;;;;;;5007283;28;20023;-70
2021/05/06 13:50:17;;;;;;;8.10;5.18;;;;;;;;;;5010843;28;20535;-70
2021/05/06 13:52:44;;;;;;;9.15;5.00;;;;;;;;;;5012368;28;20025;-70
2021/05/06 13:55:10;;;;;;;8.80;4.50;;;;;;;;;;5009885;28;20109;-70
2021/05/06 13:57:37;;;;;;;8.18;4.93;;;;;;;;;;5012206;28;20596;-70
2021/05/06 14:00:04;;;;;;;9.27;5.60;;;;;;;;;;5009280;28;20031;-70
2021/05/06 14:02:30;;;;;;;12.15;4.50;;;;;;;;;;5012055;28;20033;-70
2021/05/06 14:04:56;;;;;;;9.82;5.15;;;;;;;;;;5009658;28;20037;-69
2021/05/06 14:07:22;;;;;;;7.93;4.43;;;;;;;;;;5014274;28;20025;-69
2021/05/06 14:09:49;;;;;;;12.10;5.57;;;;;;;;;;5008887;28;20040;-70
2021/05/06 14:12:15;;;;;;;7.80;4.20;;;;;;;;;;4999931;28;20026;-68
2021/05/06 14:14:41;;;;;;;10.07;5.60;;;;;;;;;;5010883;28;20036;-69
2021/05/06 14:17:07;;;;;;;9.98;4.63;;;;;;;;;;5018741;28;20613;-71
2021/05/06 14:19:34;;;;;;;9.43;4.88;;;;;;;;;;5011750;28;20050;-70
2021/05/06 14:22:01;;;;;;;8.85;4.80;;;;;;;;;;5006437;28;20015;-70
2021/05/06 14:24:27;;;;;;;8.82;4.93;;;;;;;;;;5015029;28;20526;-68
2021/05/06 14:26:54;;;;;;;5.47;4.00;;;;;;;;;;5011609;28;20031;-69
2021/05/06 14:29:20;;;;;;;8.23;4.72;;;;;;;;;;5013512;28;20041;-69
2021/05/06 14:31:46;;;;;;;6.90;4.35;;;;;;;;;;5018168;28;20052;-69
2021/05/06 14:34:12;;;;;;;9.68;3.85;;;;;;;;;;5012940;28;20369;-69
2021/05/06 14:36:38;;;;;;;6.60;3.70;;;;;;;;;;5015147;28;20064;-68
2021/05/06 14:39:05;;;;;;;6.93;3.75;;;;;;;;;;5012258;28;20034;-68
2021/05/06 14:41:31;;;;;;;4.97;3.08;;;;;;;;;;5011589;28;20026;-69
2021/05/06 14:43:57;;;;;;;9.20;3.67;;;;;;;;;;4999017;28;20399;-69
2021/05/06 14:46:23;;;;;;;3.63;2.20;;;;;;;;;;4995745;28;20026;-68
2021/05/06 14:48:49;;;;;;;6.32;2.10;;;;;;;;;;4996034;28;20651;-69
2021/05/06 14:51:16;;;;;;;3.53;1.75;;;;;;;;;;4997098;28;20058;-68
2021/05/06 14:53:42;;;;;;;4.32;1.67;;;;;;;;;;4998608;28;20035;-69
2021/05/06 14:56:08;;;;;;;3.90;1.45;;;;;;;;;;4994919;28;20045;-68
2021/05/06 14:58:34;;;;;;;2.85;1.27;;;;;;;;;;4995995;28;20089;-69
2021/05/06 15:01:00;;;;;;;2.85;1.58;;;;;;;;;;4999508;28;20054;-68
2021/05/06 15:03:26;;;;;;;5.75;1.63;;;;;;;;;;4995523;28;20527;-69
2021/05/06 15:05:52;;;;;;;4.50;1.98;;;;;;;;;;5002151;28;20018;-69
2021/05/06 15:08:18;;;;;;;5.40;1.60;;;;;;;;;;4999451;28;20425;-68
2021/05/06 15:10:45;;;;;;;8.52;1.60;;;;;;;;;;4996596;28;20014;-68
2021/05/06 15:13:11;;;;;;;7.07;2.05;;;;;;;;;;4997603;28;20026;-71
2021/05/06 15:15:37;;;;;;;4.78;2.40;;;;;;;;;;5000216;28;20036;-70
2021/05/06 15:18:03;;;;;;;6.68;2.85;;;;;;;;;;4997381;28;20065;-70
2021/05/06 15:20:30;;;;;;;6.22;2.40;;;;;;;;;;5005660;28;20088;-69
2021/05/06 15:22:56;;;;;;;7.75;2.42;;;;;;;;;;5003677;28;20018;-71
2021/05/06 15:25:22;;;;;;;6.35;1.70;;;;;;;;;;5010023;28;20036;-69
2021/05/06 15:27:49;;;;;;;5.32;1.85;;;;;;;;;;5008807;28;20026;-70
2021/05/06 15:30:16;;;;;;;5.88;1.58;;;;;;;;;;5002611;28;20488;-70
2021/05/06 15:32:42;;;;;;;5.30;2.17;;;;;;;;;;4998466;28;20030;-71
2021/05/06 15:35:09;;;;;;;6.10;2.40;;;;;;;;;;5001782;28;20095;-71
2021/05/06 15:37:36;;;;;;;10.23;3.00;;;;;;;;;;4998805;28;20388;-72
2021/05/06 15:40:03;;;;;;;7.55;2.67;;;;;;;;;;5000268;28;20030;-71
2021/05/06 15:42:29;;;;;;;7.47;3.05;;;;;;;;;;5006669;28;20145;-71
2021/05/06 15:44:55;;;;;;;5.15;2.58;;;;;;;;;;5004486;28;20057;-71
2021/05/06 15:47:21;;;;;;;4.75;2.47;;;;;;;;;;5000888;28;20037;-72
2021/05/06 15:49:46;;;;;;;5.45;2.22;;;;;;;;;;5007282;28;20030;-71
2021/05/06 15:52:13;;;;;;;4.90;2.53;;;;;;;;;;5003066;28;20041;-72
2021/05/06 15:54:39;;;;;;;5.75;2.13;;;;;;;;;;4995382;28;20069;-71
2021/05/06 15:57:06;;;;;;;5.97;3.35;;;;;;;;;;4999034;28;20126;-71
2021/05/06 15:59:33;;;;;;;6.75;3.10;;;;;;;;;;5010271;28;20099;-72
2021/05/06 16:01:59;;;;;;;6.70;3.50;;;;;;;;;;5001216;28;20113;-71
2021/05/06 16:04:30;;;;;;;7.03;2.95;;;;;;;;;;5002294;28;20034;-71
2021/05/06 16:06:57;;;;;;;6.30;3.15;;;;;;;;;;5004548;28;20053;-71
2021/05/06 16:09:23;;;;;;;7.40;2.92;;;;;;;;;;5011378;28;20339;-71
2021/05/06 16:11:49;;;;;;;5.65;2.25;;;;;;;;;;5004383;28;20101;-71
2021/05/06 16:14:14;;;;;;;7.32;2.53;;;;;;;;;;5006208;28;20073;-71
2021/05/06 16:16:40;;;;;;;7.47;2.95;;;;;;;;;;5000012;28;20038;-71
2021/05/06 16:19:08;;;;;;;7.30;3.50;;;;;;;;;;4989613;28;20042;-71
2021/05/06 16:21:35;;;;;;;5.35;2.83;;;;;;;;;;5002552;28;20026;-71
2021/05/06 16:24:01;;;;;;;5.28;2.63;;;;;;;;;;5001683;28;20048;-71
2021/05/06 16:26:27;;;;;;;6.93;2.70;;;;;;;;;;4996406;28;20038;-71
2021/05/06 16:28:53;;;;;;;6.20;2.35;;;;;;;;;;4997992;28;20076;-71
2021/05/06 16:31:19;;;;;;;7.53;2.70;;;;;;;;;;4996258;28;20048;-72
2021/05/06 16:33:50;;;;;;;8.57;2.88;;;;;;;;;;4988665;28;20614;-71
2021/05/06 16:36:25;;;;;;;8.57;2.85;;;;;;;;;;4990506;28;20057;-72
2021/05/06 16:39:07;;;;;;;6.32;2.00;;;;;;;;;;4993966;28;20065;-69
2021/05/06 16:41:51;;;;;;;6.95;2.92;;;;;;;;;;4999608;28;20022;-69
2021/05/06 16:44:27;;;;;;;5.40;2.03;;;;;;;;;;4995070;28;20034;-69
2021/05/06 16:46:56;;;;;;;5.75;2.17;;;;;;;;;;4996309;28;20714;-70
2021/05/06 16:49:22;;;;;;;7.78;2.03;;;;;;;;;;5007224;28;20523;-69
2021/05/06 16:51:48;;;;;;;6.60;2.00;;;;;;;;;;4993921;28;20029;-69
2021/05/06 16:54:14;;;;;;;4.47;2.08;;;;;;;;;;5008107;28;20085;-70
2021/05/06 16:56:40;;;;;;;6.03;1.75;;;;;;;;;;4995170;28;20028;-69
2021/05/06 16:59:06;;;;;;;5.85;1.67;;;;;;;;;;4997015;28;20076;-70
2021/05/06 17:01:34;;;;;;;6.35;2.45;;;;;;;;;;4992790;28;20519;-70
2021/05/06 17:04:00;;;;;;;5.13;1.85;;;;;;;;;;4997995;28;20121;-69
2021/05/06 17:06:26;;;;;;;5.47;2.05;;;;;;;;;;4990332;28;20514;-69
2021/05/06 17:08:52;;;;;;;7.25;2.10;;;;;;;;;;5000225;28;20049;-70
2021/05/06 17:11:18;;;;;;;5.47;1.83;;;;;;;;;;4995395;28;20034;-70
2021/05/06 17:13:44;;;;;;;5.40;1.77;;;;;;;;;;4994246;28;20019;-70
2021/05/06 17:16:10;;;;;;;5.55;2.63;;;;;;;;;;4994394;28;20063;-70
2021/05/06 17:18:37;;;;;;;4.18;1.67;;;;;;;;;;4994392;28;20112;-69
2021/05/06 17:21:03;;;;;;;6.88;1.95;;;;;;;;;;4991516;28;20400;-70
2021/05/06 17:23:29;;;;;;;7.97;2.60;;;;;;;;;;4990185;28;20109;-69
2021/05/06 17:25:55;;;;;;;5.20;1.90;;;;;;;;;;4994635;28;20022;-70
2021/05/06 17:28:21;;;;;;;8.00;2.00;;;;;;;;;;4993266;28;20093;-70
2021/05/06 17:30:47;;;;;;;5.90;2.20;;;;;;;;;;4994967;28;20034;-71
2021/05/06 17:33:13;;;;;;;4.13;1.70;;;;;;;;;;5008743;28;20038;-72
2021/05/06 17:35:39;;;;;;;7.90;1.65;;;;;;;;;;5004446;28;20085;-71
2021/05/06 17:38:06;;;;;;;6.72;1.52;;;;;;;;;;4996021;28;20084;-71
2021/05/06 17:40:32;;;;;;;9.52;2.33;;;;;;;;;;4994243;28;20065;-71
2021/05/06 17:42:58;;;;;;;6.80;1.63;;;;;;;;;;4994533;28;20674;-71
2021/05/06 17:45:24;;;;;;;9.10;2.67;;;;;;;;;;4994998;28;20038;-71
2021/05/06 17:47:50;;;;;;;4.07;2.10;;;;;;;;;;4993494;28;20399;-71
2021/05/06 17:50:16;;;;;;;4.47;1.88;;;;;;;;;;4994625;28;20053;-70
2021/05/06 17:52:42;;;;;;;7.28;2.05;;;;;;;;;;5003426;28;20056;-71
2021/05/06 17:55:08;;;;;;;9.07;2.63;;;;;;;;;;5004350;28;20058;-71
2021/05/06 17:57:35;;;;;;;10.30;3.78;;;;;;;;;;4995395;28;20037;-70